Meleq — TCA4440 — position and weather

sailwx.info

Track history (hours):
 
Tides and Currents Weather Stations Pressure Air Temp Water Temp Dewpoint Dewpoint Depression Visibility Wind Speed Wind Dir Waves Ship Positions

Meleq

Last reported at 2017-Oct-19 03:16 UTC. Time now 2017-Oct-19 09:32 UTC.
Position N 38°59' E 019°38'.

Length 210 m; draft 6.6 m.

Type: Ship (hazmat cat A). MMSI: 271044674.

Date/timePositionNaut miles runAvg speedWind from/ knotsBaromVisibWave heightAir tempDewpointWater temp
2017-Oct-19 03:16N 38°59' E 019°38'820.6
2017-Oct-19 02:53N 39°05' E 019°33'1120.6
2017-Oct-19 02:20N 39°15' E 019°25'2320.4
2017-Oct-19 01:12N 39°35' E 019°10'520.3
2017-Oct-19 00:56N 39°40' E 019°06'920.3
2017-Oct-19 00:28N 39°48' E 019°00'1020.3
2017-Oct-18 23:58N 39°57' E 018°54'1320.6
2017-Oct-18 23:21N 40°07' E 018°45'820.6
2017-Oct-18 22:58N 40°14' E 018°39'920.4
2017-Oct-18 22:30N 40°22' E 018°32'1020.4
2017-Oct-18 22:00N 40°29' E 018°23'1120.7
2017-Oct-18 21:29N 40°37' E 018°13'1021.0
2017-Oct-18 21:00N 40°44' E 018°04'1220.7
2017-Oct-18 20:25N 40°53' E 017°53'1120.4
2017-Oct-18 19:53N 41°02' E 017°44'820.5
2017-Oct-18 19:29N 41°07' E 017°36'11920.4
2017-Oct-18 13:39N 42°34' E 015°46'520.3
2017-Oct-18 13:25N 42°38' E 015°42'3920.4
2017-Oct-18 11:29N 43°08' E 015°08'1020.5
2017-Oct-18 11:00N 43°16' E 014°60'1020.6
2017-Oct-18 10:30N 43°24' E 014°51'1120.6
2017-Oct-18 09:59N 43°32' E 014°42'1220.8
2017-Oct-18 09:24N 43°42' E 014°31'820.5
2017-Oct-18 09:00N 43°48' E 014°24'1020.4
2017-Oct-18 08:30N 43°56' E 014°15'1220.6
2017-Oct-18 07:57N 44°05' E 014°05'920.5
2017-Oct-18 07:30N 44°12' E 013°57'1020.6
2017-Oct-18 07:00N 44°21' E 013°49'1020.4
2017-Oct-18 06:30N 44°29' E 013°41'1020.2
2017-Oct-18 06:00N 44°37' E 013°34'1020.3
2017-Oct-18 05:30N 44°46' E 013°26'1020.4
2017-Oct-18 05:00N 44°54' E 013°17'1020.1
2017-Oct-18 04:30N 45°03' E 013°10'1019.8
2017-Oct-18 04:00N 45°12' E 013°05'1019.9
2017-Oct-18 03:30N 45°22' E 013°03'1020.1
2017-Oct-18 03:00N 45°29' E 013°12'1019.6
2017-Oct-18 02:30N 45°35' E 013°24'1020.0
2017-Oct-18 02:00N 45°39' E 013°37'610.3
2017-Oct-18 01:28N 45°38' E 013°45'0 0.0
2017-Oct-18 00:58N 45°38' E 013°45'0 0.0
2017-Oct-18 00:25N 45°38' E 013°45'0 0.0
2017-Oct-17 23:58N 45°38' E 013°45'0 0.0
2017-Oct-17 23:19N 45°38' E 013°45'0 0.0
2017-Oct-17 22:49N 45°38' E 013°45'0 0.0
2017-Oct-17 22:25N 45°38' E 013°45'0 0.0
2017-Oct-17 21:58N 45°38' E 013°45'0 0.0
2017-Oct-17 21:29N 45°38' E 013°45'0 0.0
2017-Oct-17 20:53N 45°38' E 013°45'0 0.0
2017-Oct-17 20:29N 45°38' E 013°45'0 0.0
2017-Oct-17 19:59N 45°38' E 013°45'0 0.0
2017-Oct-17 19:26N 45°38' E 013°45'0 0.0
2017-Oct-17 18:59N 45°38' E 013°45'0 0.0
2017-Oct-17 18:26N 45°38' E 013°45'0 0.0
2017-Oct-17 17:59N 45°38' E 013°45'0 0.0
2017-Oct-17 17:17N 45°38' E 013°45'0 0.0
2017-Oct-17 16:59N 45°38' E 013°45'0 0.0
2017-Oct-17 16:29N 45°38' E 013°45'0 0.0
2017-Oct-17 15:59N 45°38' E 013°45'0 0.0
2017-Oct-17 15:14N 45°38' E 013°45'0 0.0
2017-Oct-17 14:50N 45°38' E 013°45'0 0.0
2017-Oct-17 14:29N 45°38' E 013°45'0 0.0
2017-Oct-17 13:56N 45°38' E 013°45'0 0.0
2017-Oct-17 13:29N 45°38' E 013°45'0 0.0
2017-Oct-17 12:59N 45°38' E 013°45'0 0.0
2017-Oct-17 12:26N 45°38' E 013°45'0 0.0
2017-Oct-17 11:56N 45°38' E 013°45'0 0.0
2017-Oct-17 11:29N 45°38' E 013°45'0 0.0
2017-Oct-17 10:59N 45°38' E 013°45'1 2.7
2017-Oct-17 10:30N 45°39' E 013°44'714.2
2017-Oct-17 10:00N 45°36' E 013°35'1020.1
2017-Oct-17 09:30N 45°30' E 013°23'1020.2
2017-Oct-17 09:00N 45°23' E 013°13'1020.3
2017-Oct-17 08:30N 45°12' E 013°14'1020.4
2017-Oct-17 08:00N 45°03' E 013°20'1020.6
2017-Oct-17 07:30N 44°54' E 013°26'1020.0
2017-Oct-17 07:00N 44°45' E 013°34'1121.0
2017-Oct-17 06:30N 44°37' E 013°42'1021.1
2017-Oct-17 06:00N 44°28' E 013°50'1121.3
2017-Oct-17 05:30N 44°19' E 013°58'1121.5
2017-Oct-17 05:00N 44°10' E 014°07'1121.4
2017-Oct-17 04:30N 44°02' E 014°16'1121.4
2017-Oct-17 04:00N 43°53' E 014°25'1121.4
2017-Oct-17 03:30N 43°45' E 014°34'1121.3
2017-Oct-17 03:00N 43°37' E 014°44'1321.2
2017-Oct-17 02:24N 43°27' E 014°55'821.0
2017-Oct-17 02:00N 43°20' E 015°02'1221.0
2017-Oct-17 01:27N 43°11' E 015°12'16420.9
2017-Oct-16 17:36N 41°09' E 017°41'221.0
2017-Oct-16 17:30N 41°08' E 017°43'1020.6
2017-Oct-16 17:00N 40°60' E 017°51'1020.6
2017-Oct-16 16:30N 40°52' E 018°01'1020.3
2017-Oct-16 16:00N 40°45' E 018°10'1020.0
2017-Oct-16 15:30N 40°37' E 018°18'9420.5
2017-Oct-16 10:54N 39°17' E 019°24'2020.8
2017-Oct-16 09:57N 39°00' E 019°36'920.9
2017-Oct-16 09:30N 38°52' E 019°43'1121.1
2017-Oct-16 09:00N 38°43' E 019°50'21314.6
2017-Oct-15 18:22N 37°31' E 024°05'1621.6
2017-Oct-15 17:38N 37°44' E 024°16'721.3
2017-Oct-15 17:17N 37°49' E 024°24'274 7.4
2017-Oct-14 04:04N 40°45' E 028°55'220.4
2017-Oct-14 03:59N 40°45' E 028°57'1020.3
2017-Oct-14 03:30N 40°44' E 029°10'816.8
2017-Oct-14 03:00N 40°44' E 029°21'4 8.1
2017-Oct-14 02:30N 40°42' E 029°26'1 0.0
2017-Oct-13 15:19N 40°41' E 029°26'0 0.7
2017-Oct-13 15:00N 40°42' E 029°26'2 4.4
2017-Oct-13 14:30N 40°43' E 029°24'612.0
2017-Oct-13 14:00N 40°43' E 029°16'1020.9
2017-Oct-13 13:30N 40°44' E 029°02'15117.5
2017-Oct-13 04:53N 39°54' E 025°55'29512.4
2017-Oct-12 05:00N 38°56' E 019°40'1121.4
2017-Oct-12 04:30N 39°05' E 019°32'2021.2
2017-Oct-12 03:34N 39°22' E 019°20'421.1
2017-Oct-12 03:24N 39°25' E 019°17'821.1
2017-Oct-12 03:00N 39°32' E 019°12'7621.4
2017-Oct-11 23:28N 40°34' E 018°15'4021.9
2017-Oct-11 21:40N 41°04' E 017°40'32314.9
2017-Oct-11 00:00N 45°38' E 013°45'0 0.0
2017-Oct-10 23:30N 45°38' E 013°45'0 0.0
2017-Oct-10 23:00N 45°38' E 013°45'0 0.0
2017-Oct-10 22:30N 45°38' E 013°45'0 0.0
2017-Oct-10 21:57N 45°38' E 013°45'0 0.0
2017-Oct-10 21:21N 45°38' E 013°45'0 0.0
2017-Oct-10 20:51N 45°38' E 013°45'0 0.0
2017-Oct-10 20:30N 45°38' E 013°45'0 0.0
2017-Oct-10 20:00N 45°38' E 013°45'0 0.0
2017-Oct-10 19:30N 45°38' E 013°45'0 0.0
2017-Oct-10 18:39N 45°38' E 013°45'0 0.0
2017-Oct-10 18:30N 45°38' E 013°45'0 0.0
2017-Oct-10 18:00N 45°38' E 013°45'0 0.0
2017-Oct-10 17:30N 45°38' E 013°45'0 0.0
2017-Oct-10 16:57N 45°38' E 013°45'0 0.0
2017-Oct-10 16:27N 45°38' E 013°45'0 0.0
2017-Oct-10 16:00N 45°38' E 013°45'0 0.0
2017-Oct-10 15:30N 45°38' E 013°45'0 0.0
2017-Oct-10 15:00N 45°38' E 013°45'0 0.0
2017-Oct-10 13:54N 45°38' E 013°45'0 0.0
2017-Oct-10 13:30N 45°38' E 013°45'0 0.0
2017-Oct-10 12:54N 45°38' E 013°45'0 0.0
2017-Oct-10 12:27N 45°38' E 013°45'0 0.0
2017-Oct-10 12:00N 45°38' E 013°45'0 0.0
2017-Oct-10 11:30N 45°38' E 013°45'0 0.0
2017-Oct-10 10:54N 45°38' E 013°45'0 0.0
2017-Oct-10 10:30N 45°38' E 013°45'0 0.0
2017-Oct-10 10:00N 45°38' E 013°45'0 0.0
2017-Oct-10 09:30N 45°38' E 013°45'0 0.0
2017-Oct-10 08:54N 45°38' E 013°45'0 0.0
2017-Oct-10 08:30N 45°38' E 013°45'0 0.0
2017-Oct-10 08:00N 45°38' E 013°45'0 0.0
2017-Oct-10 07:30N 45°38' E 013°45'0 0.0
2017-Oct-10 07:00N 45°38' E 013°45'2 3.2
2017-Oct-10 06:30N 45°39' E 013°43'816.1
2017-Oct-10 06:00N 45°36' E 013°33'917.6
2017-Oct-10 05:30N 45°30' E 013°22'917.5
2017-Oct-10 05:00N 45°24' E 013°15'816.9
2017-Oct-10 04:30N 45°15' E 013°14'917.7
2017-Oct-10 04:01N 45°07' E 013°18'917.9
2017-Oct-10 03:30N 44°58' E 013°22'918.0
2017-Oct-10 03:00N 44°50' E 013°28'917.7
2017-Oct-10 02:30N 44°43' E 013°35'917.9
2017-Oct-10 02:01N 44°36' E 013°42'918.0
2017-Oct-10 01:29N 44°28' E 013°50'917.9
2017-Oct-10 01:01N 44°21' E 013°56'917.9
2017-Oct-10 00:31N 44°13' E 014°03'  
Track history (hours):
 
Tides and Currents Weather Stations Pressure Air Temp Water Temp Dewpoint Dewpoint Depression Visibility Wind Speed Wind Dir Waves Ship Positions

Meleq

Last reported at 2017-Oct-19 03:16 UTC. Time now 2017-Oct-19 09:32 UTC.
Position N 38°59' E 019°38'.

Length 210 m; draft 6.6 m.

Type: Ship (hazmat cat A). MMSI: 271044674.

Date/timePositionNaut miles runAvg speedWind from/ knotsBaromVisibWave heightAir tempDewpointWater temp
2017-Oct-19 03:16N 38°59' E 019°38'820.6
2017-Oct-19 02:53N 39°05' E 019°33'1120.6
2017-Oct-19 02:20N 39°15' E 019°25'2320.4
2017-Oct-19 01:12N 39°35' E 019°10'520.3
2017-Oct-19 00:56N 39°40' E 019°06'920.3
2017-Oct-19 00:28N 39°48' E 019°00'1020.3
2017-Oct-18 23:58N 39°57' E 018°54'1320.6
2017-Oct-18 23:21N 40°07' E 018°45'820.6
2017-Oct-18 22:58N 40°14' E 018°39'920.4
2017-Oct-18 22:30N 40°22' E 018°32'1020.4
2017-Oct-18 22:00N 40°29' E 018°23'1120.7
2017-Oct-18 21:29N 40°37' E 018°13'1021.0
2017-Oct-18 21:00N 40°44' E 018°04'1220.7
2017-Oct-18 20:25N 40°53' E 017°53'1120.4
2017-Oct-18 19:53N 41°02' E 017°44'820.5
2017-Oct-18 19:29N 41°07' E 017°36'11920.4
2017-Oct-18 13:39N 42°34' E 015°46'520.3
2017-Oct-18 13:25N 42°38' E 015°42'3920.4
2017-Oct-18 11:29N 43°08' E 015°08'1020.5
2017-Oct-18 11:00N 43°16' E 014°60'1020.6
2017-Oct-18 10:30N 43°24' E 014°51'1120.6
2017-Oct-18 09:59N 43°32' E 014°42'1220.8
2017-Oct-18 09:24N 43°42' E 014°31'820.5
2017-Oct-18 09:00N 43°48' E 014°24'1020.4
2017-Oct-18 08:30N 43°56' E 014°15'1220.6
2017-Oct-18 07:57N 44°05' E 014°05'920.5
2017-Oct-18 07:30N 44°12' E 013°57'1020.6
2017-Oct-18 07:00N 44°21' E 013°49'1020.4
2017-Oct-18 06:30N 44°29' E 013°41'1020.2
2017-Oct-18 06:00N 44°37' E 013°34'1020.3
2017-Oct-18 05:30N 44°46' E 013°26'1020.4
2017-Oct-18 05:00N 44°54' E 013°17'1020.1
2017-Oct-18 04:30N 45°03' E 013°10'1019.8
2017-Oct-18 04:00N 45°12' E 013°05'1019.9
2017-Oct-18 03:30N 45°22' E 013°03'1020.1
2017-Oct-18 03:00N 45°29' E 013°12'1019.6
2017-Oct-18 02:30N 45°35' E 013°24'1020.0
2017-Oct-18 02:00N 45°39' E 013°37'610.3
2017-Oct-18 01:28N 45°38' E 013°45'0 0.0
2017-Oct-18 00:58N 45°38' E 013°45'0 0.0
2017-Oct-18 00:25N 45°38' E 013°45'0 0.0
2017-Oct-17 23:58N 45°38' E 013°45'0 0.0
2017-Oct-17 23:19N 45°38' E 013°45'0 0.0
2017-Oct-17 22:49N 45°38' E 013°45'0 0.0
2017-Oct-17 22:25N 45°38' E 013°45'0 0.0
2017-Oct-17 21:58N 45°38' E 013°45'0 0.0
2017-Oct-17 21:29N 45°38' E 013°45'0 0.0
2017-Oct-17 20:53N 45°38' E 013°45'0 0.0
2017-Oct-17 20:29N 45°38' E 013°45'0 0.0
2017-Oct-17 19:59N 45°38' E 013°45'0 0.0
2017-Oct-17 19:26N 45°38' E 013°45'0 0.0
2017-Oct-17 18:59N 45°38' E 013°45'0 0.0
2017-Oct-17 18:26N 45°38' E 013°45'0 0.0
2017-Oct-17 17:59N 45°38' E 013°45'0 0.0
2017-Oct-17 17:17N 45°38' E 013°45'0 0.0
2017-Oct-17 16:59N 45°38' E 013°45'0 0.0
2017-Oct-17 16:29N 45°38' E 013°45'0 0.0
2017-Oct-17 15:59N 45°38' E 013°45'0 0.0
2017-Oct-17 15:14N 45°38' E 013°45'0 0.0
2017-Oct-17 14:50N 45°38' E 013°45'0 0.0
2017-Oct-17 14:29N 45°38' E 013°45'0 0.0
2017-Oct-17 13:56N 45°38' E 013°45'0 0.0
2017-Oct-17 13:29N 45°38' E 013°45'0 0.0
2017-Oct-17 12:59N 45°38' E 013°45'0 0.0
2017-Oct-17 12:26N 45°38' E 013°45'0 0.0
2017-Oct-17 11:56N 45°38' E 013°45'0 0.0
2017-Oct-17 11:29N 45°38' E 013°45'0 0.0
2017-Oct-17 10:59N 45°38' E 013°45'1 2.7
2017-Oct-17 10:30N 45°39' E 013°44'714.2
2017-Oct-17 10:00N 45°36' E 013°35'1020.1
2017-Oct-17 09:30N 45°30' E 013°23'1020.2
2017-Oct-17 09:00N 45°23' E 013°13'1020.3
2017-Oct-17 08:30N 45°12' E 013°14'1020.4
2017-Oct-17 08:00N 45°03' E 013°20'1020.6
2017-Oct-17 07:30N 44°54' E 013°26'1020.0
2017-Oct-17 07:00N 44°45' E 013°34'1121.0
2017-Oct-17 06:30N 44°37' E 013°42'1021.1
2017-Oct-17 06:00N 44°28' E 013°50'1121.3
2017-Oct-17 05:30N 44°19' E 013°58'1121.5
2017-Oct-17 05:00N 44°10' E 014°07'1121.4
2017-Oct-17 04:30N 44°02' E 014°16'1121.4
2017-Oct-17 04:00N 43°53' E 014°25'1121.4
2017-Oct-17 03:30N 43°45' E 014°34'1121.3
2017-Oct-17 03:00N 43°37' E 014°44'1321.2
2017-Oct-17 02:24N 43°27' E 014°55'821.0
2017-Oct-17 02:00N 43°20' E 015°02'1221.0
2017-Oct-17 01:27N 43°11' E 015°12'16420.9
2017-Oct-16 17:36N 41°09' E 017°41'221.0
2017-Oct-16 17:30N 41°08' E 017°43'1020.6
2017-Oct-16 17:00N 40°60' E 017°51'1020.6
2017-Oct-16 16:30N 40°52' E 018°01'1020.3
2017-Oct-16 16:00N 40°45' E 018°10'1020.0
2017-Oct-16 15:30N 40°37' E 018°18'9420.5
2017-Oct-16 10:54N 39°17' E 019°24'2020.8
2017-Oct-16 09:57N 39°00' E 019°36'920.9
2017-Oct-16 09:30N 38°52' E 019°43'1121.1
2017-Oct-16 09:00N 38°43' E 019°50'21314.6
2017-Oct-15 18:22N 37°31' E 024°05'1621.6
2017-Oct-15 17:38N 37°44' E 024°16'721.3
2017-Oct-15 17:17N 37°49' E 024°24'274 7.4
2017-Oct-14 04:04N 40°45' E 028°55'220.4
2017-Oct-14 03:59N 40°45' E 028°57'1020.3
2017-Oct-14 03:30N 40°44' E 029°10'816.8
2017-Oct-14 03:00N 40°44' E 029°21'4 8.1
2017-Oct-14 02:30N 40°42' E 029°26'1 0.0
2017-Oct-13 15:19N 40°41' E 029°26'0 0.7
2017-Oct-13 15:00N 40°42' E 029°26'2 4.4
2017-Oct-13 14:30N 40°43' E 029°24'612.0
2017-Oct-13 14:00N 40°43' E 029°16'1020.9
2017-Oct-13 13:30N 40°44' E 029°02'15117.5
2017-Oct-13 04:53N 39°54' E 025°55'29512.4
2017-Oct-12 05:00N 38°56' E 019°40'1121.4
2017-Oct-12 04:30N 39°05' E 019°32'2021.2
2017-Oct-12 03:34N 39°22' E 019°20'421.1
2017-Oct-12 03:24N 39°25' E 019°17'821.1
2017-Oct-12 03:00N 39°32' E 019°12'7621.4
2017-Oct-11 23:28N 40°34' E 018°15'4021.9
2017-Oct-11 21:40N 41°04' E 017°40'32314.9
2017-Oct-11 00:00N 45°38' E 013°45'0 0.0
2017-Oct-10 23:30N 45°38' E 013°45'0 0.0
2017-Oct-10 23:00N 45°38' E 013°45'0 0.0
2017-Oct-10 22:30N 45°38' E 013°45'0 0.0
2017-Oct-10 21:57N 45°38' E 013°45'0 0.0
2017-Oct-10 21:21N 45°38' E 013°45'0 0.0
2017-Oct-10 20:51N 45°38' E 013°45'0 0.0
2017-Oct-10 20:30N 45°38' E 013°45'0 0.0
2017-Oct-10 20:00N 45°38' E 013°45'0 0.0
2017-Oct-10 19:30N 45°38' E 013°45'0 0.0
2017-Oct-10 18:39N 45°38' E 013°45'0 0.0
2017-Oct-10 18:30N 45°38' E 013°45'0 0.0
2017-Oct-10 18:00N 45°38' E 013°45'0 0.0
2017-Oct-10 17:30N 45°38' E 013°45'0 0.0
2017-Oct-10 16:57N 45°38' E 013°45'0 0.0
2017-Oct-10 16:27N 45°38' E 013°45'0 0.0
2017-Oct-10 16:00N 45°38' E 013°45'0 0.0
2017-Oct-10 15:30N 45°38' E 013°45'0 0.0
2017-Oct-10 15:00N 45°38' E 013°45'0 0.0
2017-Oct-10 13:54N 45°38' E 013°45'0 0.0
2017-Oct-10 13:30N 45°38' E 013°45'0 0.0
2017-Oct-10 12:54N 45°38' E 013°45'0 0.0
2017-Oct-10 12:27N 45°38' E 013°45'0 0.0
2017-Oct-10 12:00N 45°38' E 013°45'0 0.0
2017-Oct-10 11:30N 45°38' E 013°45'0 0.0
2017-Oct-10 10:54N 45°38' E 013°45'0 0.0
2017-Oct-10 10:30N 45°38' E 013°45'0 0.0
2017-Oct-10 10:00N 45°38' E 013°45'0 0.0
2017-Oct-10 09:30N 45°38' E 013°45'0 0.0
2017-Oct-10 08:54N 45°38' E 013°45'0 0.0
2017-Oct-10 08:30N 45°38' E 013°45'0 0.0
2017-Oct-10 08:00N 45°38' E 013°45'0 0.0
2017-Oct-10 07:30N 45°38' E 013°45'0 0.0
2017-Oct-10 07:00N 45°38' E 013°45'2 3.2
2017-Oct-10 06:30N 45°39' E 013°43'816.1
2017-Oct-10 06:00N 45°36' E 013°33'917.6
2017-Oct-10 05:30N 45°30' E 013°22'917.5
2017-Oct-10 05:00N 45°24' E 013°15'816.9
2017-Oct-10 04:30N 45°15' E 013°14'917.7
2017-Oct-10 04:01N 45°07' E 013°18'917.9
2017-Oct-10 03:30N 44°58' E 013°22'918.0
2017-Oct-10 03:00N 44°50' E 013°28'917.7
2017-Oct-10 02:30N 44°43' E 013°35'917.9
2017-Oct-10 02:01N 44°36' E 013°42'918.0
2017-Oct-10 01:29N 44°28' E 013°50'917.9
2017-Oct-10 01:01N 44°21' E 013°56'917.9
2017-Oct-10 00:31N 44°13' E 014°03'  

Dump ship's entire track history